Time;durP1;ratioP1;P1;durP2;ratioP2;P2;SDS_P1;SDS_P2;PMS_P1;PMS_P2;Temp;Humidity;BMP_temperature;BMP_pressure;BME280_temperature;BME280_humidity;BME280_pressure;Samples;Min_cycle;Max_cycle;Signal;HPM_P1;HPM_P2
2021/05/08 00:02:18;;;;;;;6.85;3.58;;;;;;;;;;5099620;28;20103;-76
2021/05/08 00:04:43;;;;;;;4.53;3.67;;;;;;;;;;5099466;28;20040;-76
2021/05/08 00:07:09;;;;;;;7.20;4.55;;;;;;;;;;5099164;28;20063;-76
2021/05/08 00:09:34;;;;;;;9.35;4.97;;;;;;;;;;5100105;28;20063;-76
2021/05/08 00:11:59;;;;;;;6.70;4.70;;;;;;;;;;5097911;28;20085;-76
2021/05/08 00:14:26;;;;;;;5.05;4.32;;;;;;;;;;5100067;28;20040;-76
2021/05/08 00:16:53;;;;;;;6.80;3.40;;;;;;;;;;5099400;28;20034;-76
2021/05/08 00:19:18;;;;;;;4.65;3.67;;;;;;;;;;5098422;28;20085;-76
2021/05/08 00:21:44;;;;;;;4.32;3.65;;;;;;;;;;5099847;28;20577;-76
2021/05/08 00:24:10;;;;;;;5.35;3.67;;;;;;;;;;5099292;28;20036;-76
2021/05/08 00:26:35;;;;;;;7.50;4.22;;;;;;;;;;5097712;28;20028;-76
2021/05/08 00:29:01;;;;;;;5.78;3.63;;;;;;;;;;5099057;28;20044;-76
2021/05/08 00:31:27;;;;;;;3.97;3.20;;;;;;;;;;5099865;28;20051;-76
2021/05/08 00:33:52;;;;;;;6.60;4.00;;;;;;;;;;5098306;28;20036;-76
2021/05/08 00:36:18;;;;;;;5.10;4.20;;;;;;;;;;5099727;28;20063;-76
2021/05/08 00:38:43;;;;;;;4.65;3.80;;;;;;;;;;5099170;28;20035;-76
2021/05/08 00:41:09;;;;;;;4.95;3.60;;;;;;;;;;5098966;28;20086;-76
2021/05/08 00:43:37;;;;;;;4.63;4.05;;;;;;;;;;5077992;28;20044;-76
2021/05/08 00:46:02;;;;;;;4.78;3.65;;;;;;;;;;5078519;28;20036;-76
2021/05/08 00:48:28;;;;;;;5.10;3.70;;;;;;;;;;5079652;28;20062;-76
2021/05/08 00:50:55;;;;;;;5.28;3.88;;;;;;;;;;5077660;28;20058;-76
2021/05/08 00:53:21;;;;;;;6.00;3.83;;;;;;;;;;5078690;28;20032;-76
2021/05/08 00:55:46;;;;;;;5.88;4.00;;;;;;;;;;5078768;28;20047;-76
2021/05/08 00:58:13;;;;;;;6.15;4.65;;;;;;;;;;5078012;28;20033;-76
2021/05/08 01:00:40;;;;;;;6.40;4.57;;;;;;;;;;5078731;28;20041;-76
2021/05/08 01:03:07;;;;;;;5.60;4.70;;;;;;;;;;5077682;28;20105;-76
2021/05/08 01:05:34;;;;;;;4.50;3.63;;;;;;;;;;5078060;28;20122;-76
2021/05/08 01:08:04;;;;;;;6.40;3.72;;;;;;;;;;5078196;28;20035;-76
2021/05/08 01:10:32;;;;;;;5.32;3.85;;;;;;;;;;5077899;28;20494;-76
2021/05/08 01:12:59;;;;;;;7.70;4.20;;;;;;;;;;5077923;28;20036;-76
2021/05/08 01:15:26;;;;;;;7.25;4.53;;;;;;;;;;5078894;28;20033;-76
2021/05/08 01:17:52;;;;;;;5.93;4.57;;;;;;;;;;5077134;28;20039;-76
2021/05/08 01:20:18;;;;;;;10.68;5.10;;;;;;;;;;5077486;28;20032;-76
2021/05/08 01:22:49;;;;;;;4.30;3.55;;;;;;;;;;5076713;28;20117;-76
2021/05/08 01:25:24;;;;;;;7.70;4.50;;;;;;;;;;5077293;28;20177;-76
2021/05/08 01:27:55;;;;;;;4.40;4.00;;;;;;;;;;5077772;28;20032;-76
2021/05/08 01:30:30;;;;;;;7.55;5.32;;;;;;;;;;5078512;28;20056;-76
2021/05/08 01:32:57;;;;;;;6.00;4.95;;;;;;;;;;5077398;28;20032;-76
2021/05/08 01:35:24;;;;;;;8.65;5.07;;;;;;;;;;5077844;28;20029;-76
2021/05/08 01:37:50;;;;;;;5.93;4.57;;;;;;;;;;5072442;28;20082;-76
2021/05/08 01:40:17;;;;;;;9.48;5.38;;;;;;;;;;5073810;28;20404;-76
2021/05/08 01:42:48;;;;;;;6.80;5.00;;;;;;;;;;5086024;28;20040;-76
2021/05/08 01:45:18;;;;;;;9.00;5.75;;;;;;;;;;5095095;28;20669;-76
2021/05/08 01:47:45;;;;;;;6.60;5.00;;;;;;;;;;5093261;28;20079;-76
2021/05/08 01:50:14;;;;;;;5.93;4.43;;;;;;;;;;5095297;28;20047;-76
2021/05/08 01:52:40;;;;;;;7.90;5.28;;;;;;;;;;5095347;28;20036;-76
2021/05/08 01:55:09;;;;;;;9.32;5.65;;;;;;;;;;5094409;28;20097;-76
2021/05/08 01:57:39;;;;;;;7.88;5.90;;;;;;;;;;5095287;28;20023;-76
2021/05/08 02:00:23;;;;;;;7.75;6.28;;;;;;;;;;5095417;28;20036;-76
2021/05/08 02:02:52;;;;;;;6.85;4.47;;;;;;;;;;5095668;28;20069;-76
2021/05/08 02:05:29;;;;;;;5.55;4.20;;;;;;;;;;5078455;28;20032;-76
2021/05/08 02:08:01;;;;;;;8.43;4.28;;;;;;;;;;5094016;28;20151;-76
2021/05/08 02:10:27;;;;;;;5.40;4.07;;;;;;;;;;5095863;28;20067;-76
2021/05/08 02:12:53;;;;;;;9.70;5.07;;;;;;;;;;5095505;28;20467;-76
2021/05/08 02:15:19;;;;;;;9.80;5.60;;;;;;;;;;5096032;28;20036;-76
2021/05/08 02:17:45;;;;;;;11.50;5.53;;;;;;;;;;5094863;28;20058;-76
2021/05/08 02:20:15;;;;;;;6.72;4.85;;;;;;;;;;5096026;28;20028;-76
2021/05/08 02:22:43;;;;;;;5.35;4.40;;;;;;;;;;5093772;28;20032;-76
2021/05/08 02:25:11;;;;;;;6.38;5.43;;;;;;;;;;5095222;28;20036;-76
2021/05/08 02:27:38;;;;;;;6.60;4.90;;;;;;;;;;5094489;28;20093;-76
2021/05/08 02:30:06;;;;;;;7.70;4.65;;;;;;;;;;5094819;28;20476;-76
2021/05/08 02:32:32;;;;;;;8.57;4.53;;;;;;;;;;5094532;28;20039;-76
2021/05/08 02:34:58;;;;;;;4.88;4.25;;;;;;;;;;5095569;28;20039;-76
2021/05/08 02:37:23;;;;;;;9.13;4.97;;;;;;;;;;5095785;28;20119;-76
2021/05/08 02:39:49;;;;;;;7.30;5.07;;;;;;;;;;5092830;28;20102;-76
2021/05/08 02:42:14;;;;;;;7.82;5.78;;;;;;;;;;5095544;28;20039;-76
2021/05/08 02:44:40;;;;;;;7.93;5.30;;;;;;;;;;5095870;28;20028;-76
2021/05/08 02:47:17;;;;;;;7.82;5.18;;;;;;;;;;5096129;28;20044;-76
2021/05/08 02:49:50;;;;;;;6.53;5.40;;;;;;;;;;5080158;28;20031;-76
2021/05/08 02:52:20;;;;;;;7.10;4.95;;;;;;;;;;5099402;28;20028;-76
2021/05/08 02:54:45;;;;;;;7.10;5.05;;;;;;;;;;5099887;28;20384;-76
2021/05/08 02:57:11;;;;;;;7.25;5.45;;;;;;;;;;5099396;28;20032;-76
2021/05/08 02:59:37;;;;;;;6.88;4.88;;;;;;;;;;5100553;28;20028;-76
2021/05/08 03:02:04;;;;;;;6.68;5.63;;;;;;;;;;5099197;28;20021;-76
2021/05/08 03:04:29;;;;;;;6.70;5.20;;;;;;;;;;5100182;28;20091;-76
2021/05/08 03:06:56;;;;;;;8.77;6.68;;;;;;;;;;5082878;28;20741;-76
2021/05/08 03:09:22;;;;;;;10.63;7.75;;;;;;;;;;5082222;28;20042;-76
2021/05/08 03:11:49;;;;;;;28.63;10.50;;;;;;;;;;5096639;28;20099;-76
2021/05/08 03:14:15;;;;;;;23.85;10.23;;;;;;;;;;5098881;28;20028;-76
2021/05/08 03:16:42;;;;;;;29.45;10.80;;;;;;;;;;5100044;28;20085;-76
2021/05/08 03:19:08;;;;;;;14.48;10.93;;;;;;;;;;5094116;28;20119;-76
2021/05/08 03:21:35;;;;;;;18.13;12.10;;;;;;;;;;5098568;28;20508;-76
2021/05/08 03:24:02;;;;;;;19.38;12.00;;;;;;;;;;5100107;28;20036;-76
2021/05/08 03:26:27;;;;;;;19.33;12.10;;;;;;;;;;5099050;28;20440;-76
2021/05/08 03:28:53;;;;;;;24.17;12.57;;;;;;;;;;5096847;28;20024;-76
2021/05/08 03:31:18;;;;;;;18.60;11.48;;;;;;;;;;5096332;28;20027;-76
2021/05/08 03:33:44;;;;;;;20.05;9.07;;;;;;;;;;5097423;28;20241;-76
2021/05/08 03:36:10;;;;;;;20.42;8.30;;;;;;;;;;5097838;28;20044;-76
2021/05/08 03:38:36;;;;;;;14.90;10.30;;;;;;;;;;5097522;28;20039;-76
2021/05/08 03:41:01;;;;;;;12.18;9.80;;;;;;;;;;5098118;28;20115;-76
2021/05/08 03:43:27;;;;;;;16.38;9.82;;;;;;;;;;5096578;28;20382;-76
2021/05/08 03:45:52;;;;;;;17.20;9.82;;;;;;;;;;5077848;28;20094;-76
2021/05/08 03:48:18;;;;;;;18.13;10.93;;;;;;;;;;5096074;28;20041;-76
2021/05/08 03:50:45;;;;;;;17.17;10.60;;;;;;;;;;5096413;28;20114;-76
2021/05/08 03:53:11;;;;;;;11.07;8.40;;;;;;;;;;5096481;28;20046;-76
2021/05/08 03:55:38;;;;;;;14.10;9.77;;;;;;;;;;5095047;28;20036;-76
2021/05/08 03:58:04;;;;;;;13.65;10.98;;;;;;;;;;5097380;28;20055;-76
2021/05/08 04:00:29;;;;;;;11.85;9.38;;;;;;;;;;5096705;28;20047;-76
2021/05/08 04:02:55;;;;;;;11.15;8.65;;;;;;;;;;5096554;28;20034;-76
2021/05/08 04:05:20;;;;;;;13.65;9.10;;;;;;;;;;5095188;28;20075;-76
2021/05/08 04:07:45;;;;;;;14.15;9.00;;;;;;;;;;5056344;28;20383;-76
2021/05/08 04:10:11;;;;;;;13.45;9.70;;;;;;;;;;5056887;28;20033;-76
2021/05/08 04:12:36;;;;;;;11.25;9.63;;;;;;;;;;5057216;28;20033;-76
2021/05/08 04:15:03;;;;;;;12.23;9.55;;;;;;;;;;5056482;28;20047;-76
2021/05/08 04:17:28;;;;;;;18.98;11.95;;;;;;;;;;5057419;28;20490;-76
2021/05/08 04:19:54;;;;;;;13.73;10.82;;;;;;;;;;5056336;28;20041;-76
2021/05/08 04:22:19;;;;;;;13.52;9.88;;;;;;;;;;5083522;28;20105;-76
2021/05/08 04:24:44;;;;;;;15.15;9.63;;;;;;;;;;5098752;28;20359;-76
2021/05/08 04:27:10;;;;;;;10.68;8.13;;;;;;;;;;5098508;28;20032;-76
2021/05/08 04:29:35;;;;;;;16.13;9.45;;;;;;;;;;5097556;28;20111;-76
2021/05/08 04:32:01;;;;;;;15.82;9.73;;;;;;;;;;5097005;28;20039;-76
2021/05/08 04:34:26;;;;;;;12.88;9.70;;;;;;;;;;5097599;28;20047;-76
2021/05/08 04:36:52;;;;;;;10.68;9.10;;;;;;;;;;5096121;28;20040;-76
2021/05/08 04:39:17;;;;;;;13.52;9.50;;;;;;;;;;5096240;28;20028;-76
2021/05/08 04:41:43;;;;;;;11.30;8.35;;;;;;;;;;5078688;28;537569;-76
2021/05/08 04:44:08;;;;;;;10.57;8.60;;;;;;;;;;5099072;28;20089;-76
2021/05/08 04:46:34;;;;;;;10.10;8.43;;;;;;;;;;5097094;28;20060;-76
2021/05/08 04:48:59;;;;;;;8.95;7.50;;;;;;;;;;5099698;28;20036;-76
2021/05/08 04:51:25;;;;;;;9.60;8.23;;;;;;;;;;5099774;28;20040;-76
2021/05/08 04:53:50;;;;;;;10.68;7.80;;;;;;;;;;5098781;28;20032;-76
2021/05/08 04:56:16;;;;;;;9.07;8.00;;;;;;;;;;5097455;28;20762;-76
2021/05/08 04:58:43;;;;;;;9.48;7.65;;;;;;;;;;5092250;28;20031;-76
2021/05/08 05:01:12;;;;;;;10.20;8.10;;;;;;;;;;5093480;28;20382;-76
2021/05/08 05:03:37;;;;;;;10.65;7.35;;;;;;;;;;5095314;28;20347;-76
2021/05/08 05:06:04;;;;;;;9.95;7.97;;;;;;;;;;5095892;28;20042;-76
2021/05/08 05:08:29;;;;;;;10.07;8.18;;;;;;;;;;5094724;28;20031;-76
2021/05/08 05:10:55;;;;;;;10.75;8.40;;;;;;;;;;5076609;28;20153;-76
2021/05/08 05:13:23;;;;;;;9.15;7.93;;;;;;;;;;5094804;28;20040;-76
2021/05/08 05:15:49;;;;;;;9.82;7.88;;;;;;;;;;5096170;28;20394;-76
2021/05/08 05:18:15;;;;;;;11.35;7.60;;;;;;;;;;5095955;28;20047;-76
2021/05/08 05:20:40;;;;;;;8.13;6.82;;;;;;;;;;5096417;28;20467;-76
2021/05/08 05:23:06;;;;;;;10.13;7.13;;;;;;;;;;5097064;28;20032;-76
2021/05/08 05:25:32;;;;;;;9.55;7.95;;;;;;;;;;5095589;28;20481;-72
2021/05/08 05:27:57;;;;;;;8.98;7.93;;;;;;;;;;5096272;28;20487;-78
2021/05/08 05:30:23;;;;;;;10.70;8.77;;;;;;;;;;5093508;28;20043;-75
2021/05/08 05:32:49;;;;;;;11.68;7.95;;;;;;;;;;5096363;28;20032;-75
2021/05/08 05:35:14;;;;;;;11.10;8.02;;;;;;;;;;5096533;28;20036;-75
2021/05/08 05:37:39;;;;;;;11.32;8.30;;;;;;;;;;5094781;28;20043;-77
2021/05/08 05:40:06;;;;;;;8.32;7.03;;;;;;;;;;5080119;28;20035;-77
2021/05/08 05:42:32;;;;;;;9.38;8.23;;;;;;;;;;5073727;28;20052;-77
2021/05/08 05:44:57;;;;;;;11.27;8.23;;;;;;;;;;5074143;28;20028;-77
2021/05/08 05:47:23;;;;;;;9.45;8.15;;;;;;;;;;5072552;28;20066;-76
2021/05/08 05:49:53;;;;;;;10.40;7.50;;;;;;;;;;5073714;28;20460;-76
2021/05/08 05:52:22;;;;;;;9.48;7.60;;;;;;;;;;5072590;28;20101;-76
2021/05/08 05:54:51;;;;;;;12.30;8.40;;;;;;;;;;5073005;28;20127;-75
2021/05/08 05:57:18;;;;;;;11.52;8.82;;;;;;;;;;5077215;28;20045;-75
2021/05/08 05:59:44;;;;;;;17.92;9.45;;;;;;;;;;5072564;28;20036;-77
2021/05/08 06:02:11;;;;;;;13.25;9.77;;;;;;;;;;5072988;28;20033;-77
2021/05/08 06:04:36;;;;;;;15.40;10.43;;;;;;;;;;5073264;28;20490;-76
2021/05/08 06:07:02;;;;;;;15.50;10.10;;;;;;;;;;5072867;28;20028;-77
2021/05/08 06:09:28;;;;;;;13.75;10.23;;;;;;;;;;5071724;28;20390;-77
2021/05/08 06:11:55;;;;;;;19.40;10.00;;;;;;;;;;5073381;28;20039;-77
2021/05/08 06:14:23;;;;;;;14.98;10.27;;;;;;;;;;5076031;28;20047;-75
2021/05/08 06:17:01;;;;;;;13.80;10.27;;;;;;;;;;5077401;28;20044;-77
2021/05/08 06:19:27;;;;;;;15.02;9.88;;;;;;;;;;5077977;28;20040;-77
2021/05/08 06:21:52;;;;;;;22.42;11.90;;;;;;;;;;5074263;28;20037;-78
2021/05/08 06:24:18;;;;;;;14.73;11.52;;;;;;;;;;5092295;28;20028;-78
2021/05/08 06:26:43;;;;;;;17.83;13.07;;;;;;;;;;5093918;28;20481;-78
2021/05/08 06:29:09;;;;;;;17.52;12.60;;;;;;;;;;5093202;28;20392;-77
2021/05/08 06:31:34;;;;;;;15.02;10.77;;;;;;;;;;5091827;28;20032;-76
2021/05/08 06:34:00;;;;;;;12.15;9.95;;;;;;;;;;5093462;28;20363;-77
2021/05/08 06:36:25;;;;;;;23.42;13.80;;;;;;;;;;5093248;28;20083;-77
2021/05/08 06:38:51;;;;;;;15.50;9.55;;;;;;;;;;5092151;28;20048;-77
2021/05/08 06:41:17;;;;;;;15.88;10.85;;;;;;;;;;5092987;28;20166;-76
2021/05/08 06:43:43;;;;;;;10.98;8.40;;;;;;;;;;5093258;28;20036;-78
2021/05/08 06:46:08;;;;;;;12.13;8.30;;;;;;;;;;5092229;28;20497;-77
2021/05/08 06:48:35;;;;;;;9.68;6.20;;;;;;;;;;5096081;28;20038;-78
2021/05/08 06:51:02;;;;;;;6.88;5.82;;;;;;;;;;5093549;28;20020;-78
2021/05/08 06:53:27;;;;;;;6.82;5.95;;;;;;;;;;5093000;28;20036;-77
2021/05/08 06:55:53;;;;;;;9.13;5.82;;;;;;;;;;5094627;28;20032;-79
2021/05/08 06:58:18;;;;;;;9.05;5.57;;;;;;;;;;5094740;28;20035;-80
2021/05/08 07:00:43;;;;;;;7.07;5.45;;;;;;;;;;5094367;28;20036;-80
2021/05/08 07:03:09;;;;;;;6.40;4.70;;;;;;;;;;5095167;28;20044;-81
2021/05/08 07:05:34;;;;;;;8.70;5.40;;;;;;;;;;5094768;28;20420;-79
2021/05/08 07:08:06;;;;;;;7.20;4.53;;;;;;;;;;5093617;28;20040;-78
2021/05/08 07:10:31;;;;;;;7.63;4.18;;;;;;;;;;5092620;28;20057;-79
2021/05/08 07:12:57;;;;;;;7.10;4.32;;;;;;;;;;5094873;28;20035;-78
2021/05/08 07:15:23;;;;;;;8.18;4.93;;;;;;;;;;5094630;28;20469;-78
2021/05/08 07:18:03;;;;;;;5.22;4.18;;;;;;;;;;5098864;28;20119;-77
2021/05/08 07:20:30;;;;;;;5.25;3.80;;;;;;;;;;5096684;28;20039;-80
2021/05/08 07:22:55;;;;;;;4.90;3.80;;;;;;;;;;5081348;28;20121;-78
2021/05/08 07:25:21;;;;;;;6.53;4.00;;;;;;;;;;5073115;28;20486;-76
2021/05/08 07:27:46;;;;;;;7.35;4.57;;;;;;;;;;5073355;28;20036;-77
2021/05/08 07:30:12;;;;;;;6.68;4.45;;;;;;;;;;5072024;28;20116;-78
2021/05/08 07:32:40;;;;;;;6.57;4.30;;;;;;;;;;5072998;28;20493;-77
2021/05/08 07:35:07;;;;;;;5.13;4.10;;;;;;;;;;5057906;28;20032;-81
2021/05/08 07:37:32;;;;;;;11.57;4.50;;;;;;;;;;5085800;28;20039;-76
2021/05/08 07:39:58;;;;;;;6.45;4.40;;;;;;;;;;5097991;28;20032;-74
2021/05/08 07:42:23;;;;;;;7.57;4.47;;;;;;;;;;5098875;28;20127;-74
2021/05/08 07:44:49;;;;;;;9.10;4.38;;;;;;;;;;5097492;28;20094;-76
2021/05/08 07:47:14;;;;;;;5.65;3.90;;;;;;;;;;5099187;28;20058;-75
2021/05/08 07:49:40;;;;;;;7.07;3.53;;;;;;;;;;5096414;28;20027;-77
2021/05/08 07:52:08;;;;;;;6.70;3.85;;;;;;;;;;5095610;28;20776;-77
2021/05/08 07:54:33;;;;;;;4.47;3.42;;;;;;;;;;5098248;28;20431;-74
2021/05/08 07:56:59;;;;;;;8.77;4.05;;;;;;;;;;5096753;28;20036;-75
2021/05/08 07:59:24;;;;;;;4.85;3.60;;;;;;;;;;5096128;28;20036;-75
2021/05/08 08:01:50;;;;;;;9.82;4.00;;;;;;;;;;5095735;28;20043;-75
2021/05/08 08:04:16;;;;;;;6.25;3.60;;;;;;;;;;5095865;28;20039;-75
2021/05/08 08:06:41;;;;;;;6.03;3.72;;;;;;;;;;5094374;28;20023;-74
2021/05/08 08:09:07;;;;;;;5.00;3.90;;;;;;;;;;5095567;28;20514;-75
2021/05/08 08:11:32;;;;;;;8.43;3.88;;;;;;;;;;5095767;28;20032;-77
2021/05/08 08:13:58;;;;;;;4.70;3.75;;;;;;;;;;5094258;28;20482;-77
2021/05/08 08:16:23;;;;;;;6.00;3.70;;;;;;;;;;5095839;28;20032;-77
2021/05/08 08:18:49;;;;;;;6.05;3.30;;;;;;;;;;5095660;28;20040;-77
2021/05/08 08:21:14;;;;;;;6.82;4.00;;;;;;;;;;5095531;28;20054;-77
2021/05/08 08:23:40;;;;;;;5.38;3.10;;;;;;;;;;5093773;28;20068;-77
2021/05/08 08:26:05;;;;;;;6.43;3.72;;;;;;;;;;5095761;28;20040;-77
2021/05/08 08:28:31;;;;;;;4.35;3.30;;;;;;;;;;5095547;28;20039;-77
2021/05/08 08:30:56;;;;;;;4.35;3.28;;;;;;;;;;5095449;28;20060;-77
2021/05/08 08:33:22;;;;;;;6.43;3.40;;;;;;;;;;5095558;28;20035;-77
2021/05/08 08:35:47;;;;;;;3.85;2.80;;;;;;;;;;5095404;28;20055;-77
2021/05/08 08:38:13;;;;;;;3.88;3.08;;;;;;;;;;5094967;28;20039;-77
2021/05/08 08:40:39;;;;;;;7.25;3.17;;;;;;;;;;5093698;28;20038;-77
2021/05/08 08:43:05;;;;;;;4.72;2.70;;;;;;;;;;5095095;28;20481;-75
2021/05/08 08:45:30;;;;;;;4.18;2.70;;;;;;;;;;5093912;28;20043;-75
2021/05/08 08:47:56;;;;;;;8.50;3.13;;;;;;;;;;5094059;28;20112;-75
2021/05/08 08:50:22;;;;;;;6.28;3.70;;;;;;;;;;5093642;28;20405;-75
2021/05/08 08:52:47;;;;;;;6.93;3.45;;;;;;;;;;5093747;28;20017;-75
2021/05/08 08:55:13;;;;;;;9.80;3.53;;;;;;;;;;5095039;28;20044;-77
2021/05/08 08:57:41;;;;;;;5.30;2.85;;;;;;;;;;5093752;28;20036;-76
2021/05/08 09:00:15;;;;;;;3.85;3.25;;;;;;;;;;5095003;28;20035;-78
2021/05/08 09:02:42;;;;;;;5.47;2.92;;;;;;;;;;5093147;28;20421;-75
2021/05/08 09:05:11;;;;;;;4.85;3.38;;;;;;;;;;5094705;28;20058;-78
2021/05/08 09:07:39;;;;;;;4.10;3.10;;;;;;;;;;5090433;28;20079;-78
2021/05/08 09:10:08;;;;;;;3.90;2.70;;;;;;;;;;5079350;28;20036;-77
2021/05/08 09:12:53;;;;;;;5.50;2.95;;;;;;;;;;5075783;28;20033;-77
2021/05/08 09:15:49;;;;;;;4.07;2.83;;;;;;;;;;5081428;28;20044;-78
2021/05/08 09:18:31;;;;;;;4.93;2.70;;;;;;;;;;5076701;28;20040;-75
2021/05/08 09:20:57;;;;;;;3.70;2.42;;;;;;;;;;5094395;28;20032;-74
2021/05/08 09:23:24;;;;;;;4.78;2.90;;;;;;;;;;5093184;28;20046;-74
2021/05/08 09:25:56;;;;;;;4.20;2.70;;;;;;;;;;5094347;28;20040;-79
2021/05/08 09:28:21;;;;;;;3.42;2.63;;;;;;;;;;5097228;28;20480;-77
2021/05/08 09:30:47;;;;;;;4.57;3.40;;;;;;;;;;5095684;28;20032;-77
2021/05/08 09:33:19;;;;;;;3.92;2.63;;;;;;;;;;5094144;28;20055;-76
2021/05/08 09:36:09;;;;;;;5.35;3.30;;;;;;;;;;5094040;28;20036;-75
2021/05/08 09:38:39;;;;;;;7.78;2.72;;;;;;;;;;5093203;28;20074;-76
2021/05/08 09:41:08;;;;;;;4.30;2.50;;;;;;;;;;5078478;28;20119;-75
2021/05/08 09:43:34;;;;;;;5.97;3.35;;;;;;;;;;5064260;28;20044;-76
2021/05/08 09:46:00;;;;;;;4.97;2.88;;;;;;;;;;5067320;28;20041;-76
2021/05/08 09:48:36;;;;;;;5.25;3.30;;;;;;;;;;5063532;28;20032;-78
2021/05/08 09:51:28;;;;;;;4.65;3.00;;;;;;;;;;5065444;28;20025;-76
2021/05/08 09:54:02;;;;;;;4.90;2.95;;;;;;;;;;5066948;28;20041;-75
2021/05/08 09:56:32;;;;;;;5.03;3.30;;;;;;;;;;5064406;28;20083;-74
2021/05/08 09:59:34;;;;;;;12.25;7.10;;;;;;;;;;5063343;28;20040;-74
2021/05/08 10:02:03;;;;;;;6.60;3.45;;;;;;;;;;5065771;28;20059;-74
2021/05/08 10:04:49;;;;;;;7.07;3.15;;;;;;;;;;5065520;28;20428;-75
2021/05/08 10:07:17;;;;;;;4.20;2.70;;;;;;;;;;5072521;28;20044;-79
2021/05/08 10:09:46;;;;;;;5.95;3.45;;;;;;;;;;5075078;28;20032;-76
2021/05/08 10:12:22;;;;;;;4.25;2.70;;;;;;;;;;5073480;28;20043;-79
2021/05/08 10:14:53;;;;;;;3.33;2.40;;;;;;;;;;5092166;28;20110;-80
2021/05/08 10:17:23;;;;;;;3.88;2.33;;;;;;;;;;5095280;28;20064;-79
2021/05/08 10:19:52;;;;;;;7.72;2.47;;;;;;;;;;5096809;28;20032;-80
2021/05/08 10:22:18;;;;;;;4.47;2.40;;;;;;;;;;5099335;28;20474;-78
2021/05/08 10:24:46;;;;;;;3.70;2.28;;;;;;;;;;5096702;28;20071;-78
2021/05/08 10:27:12;;;;;;;4.03;2.75;;;;;;;;;;5096264;28;20046;-78
2021/05/08 10:29:47;;;;;;;5.57;2.88;;;;;;;;;;5096826;28;20035;-79
2021/05/08 10:32:15;;;;;;;4.57;2.47;;;;;;;;;;5096574;28;20365;-78
2021/05/08 10:34:49;;;;;;;6.07;2.25;;;;;;;;;;5096057;28;20064;-78
2021/05/08 10:37:15;;;;;;;17.67;3.35;;;;;;;;;;5096021;28;20040;-79
2021/05/08 10:40:11;;;;;;;4.40;2.45;;;;;;;;;;5095765;28;20043;-79
2021/05/08 10:43:06;;;;;;;5.43;1.75;;;;;;;;;;5093453;28;20185;-77
2021/05/08 10:45:32;;;;;;;4.07;2.17;;;;;;;;;;5095453;28;20043;-76
2021/05/08 10:48:04;;;;;;;6.57;2.88;;;;;;;;;;5099025;28;20032;-78
2021/05/08 10:50:42;;;;;;;6.00;3.38;;;;;;;;;;5100552;28;20036;-79
2021/05/08 10:53:16;;;;;;;7.47;2.92;;;;;;;;;;5099619;28;20088;-79
2021/05/08 10:55:57;;;;;;;3.95;2.63;;;;;;;;;;5095707;28;20161;-81
2021/05/08 10:58:22;;;;;;;4.05;2.53;;;;;;;;;;5094941;28;20031;-81
2021/05/08 11:00:52;;;;;;;4.38;3.05;;;;;;;;;;5093152;28;20081;-80
2021/05/08 11:03:20;;;;;;;20.70;12.15;;;;;;;;;;5095985;28;20040;-79
2021/05/08 11:05:59;;;;;;;6.75;3.55;;;;;;;;;;5095281;28;20401;-84
2021/05/08 11:08:24;;;;;;;3.40;2.20;;;;;;;;;;5095875;28;20056;-78
2021/05/08 11:10:56;;;;;;;4.53;2.28;;;;;;;;;;5080258;28;20036;-79
2021/05/08 11:13:24;;;;;;;7.28;2.45;;;;;;;;;;5077342;28;20378;-79
2021/05/08 11:16:03;;;;;;;4.90;2.22;;;;;;;;;;5077191;28;20052;-77
2021/05/08 11:18:32;;;;;;;4.55;2.20;;;;;;;;;;5076773;28;20064;-77
2021/05/08 11:21:03;;;;;;;5.03;2.28;;;;;;;;;;5076583;28;20412;-78
2021/05/08 11:23:49;;;;;;;3.10;2.25;;;;;;;;;;5078921;28;20036;-77
2021/05/08 11:29:12;;;;;;;5.38;2.58;;;;;;;;;;5077233;28;20434;-77
2021/05/08 11:31:47;;;;;;;4.88;1.88;;;;;;;;;;5077401;28;20039;-78
2021/05/08 11:34:23;;;;;;;3.13;2.15;;;;;;;;;;5077464;28;20051;-77
2021/05/08 11:36:49;;;;;;;7.70;3.28;;;;;;;;;;5076930;28;20039;-78
2021/05/08 11:39:24;;;;;;;4.43;2.55;;;;;;;;;;5081287;28;20427;-78
2021/05/08 11:41:52;;;;;;;4.47;2.63;;;;;;;;;;5096837;28;20063;-78
2021/05/08 11:44:20;;;;;;;8.43;2.85;;;;;;;;;;5093810;28;20484;-78
2021/05/08 11:47:00;;;;;;;3.72;2.13;;;;;;;;;;5096122;28;20481;-77
2021/05/08 11:49:27;;;;;;;5.47;2.97;;;;;;;;;;5095624;28;20107;-78
2021/05/08 11:51:53;;;;;;;6.75;2.67;;;;;;;;;;5095699;28;20046;-78
2021/05/08 11:54:18;;;;;;;3.72;2.20;;;;;;;;;;5095360;28;20023;-77
2021/05/08 11:56:44;;;;;;;5.57;2.33;;;;;;;;;;5097230;28;20036;-77
2021/05/08 11:59:09;;;;;;;6.28;1.73;;;;;;;;;;5095084;28;20032;-77
2021/05/08 12:01:35;;;;;;;3.33;1.85;;;;;;;;;;5095716;28;20493;-77
2021/05/08 12:04:02;;;;;;;4.28;1.60;;;;;;;;;;5094838;28;20046;-77
2021/05/08 12:06:29;;;;;;;2.47;1.88;;;;;;;;;;5095822;28;20085;-77
2021/05/08 12:08:55;;;;;;;3.17;1.88;;;;;;;;;;5096030;28;20032;-77
2021/05/08 12:11:21;;;;;;;2.83;1.88;;;;;;;;;;5094178;28;20039;-77
2021/05/08 12:13:47;;;;;;;2.53;2.00;;;;;;;;;;5095820;28;20047;-77
2021/05/08 12:16:13;;;;;;;4.03;2.20;;;;;;;;;;5095861;28;20063;-77
2021/05/08 12:18:41;;;;;;;4.00;1.90;;;;;;;;;;5095897;28;20028;-77
2021/05/08 12:21:10;;;;;;;2.67;1.60;;;;;;;;;;5094328;28;20088;-77
2021/05/08 12:23:37;;;;;;;2.72;1.90;;;;;;;;;;5095995;28;20028;-77
2021/05/08 12:26:06;;;;;;;6.32;2.10;;;;;;;;;;5096534;28;20419;-78
2021/05/08 12:28:36;;;;;;;9.88;2.15;;;;;;;;;;5096249;28;20043;-76
2021/05/08 12:31:33;;;;;;;2.65;1.77;;;;;;;;;;5096087;28;20055;-80
2021/05/08 12:34:04;;;;;;;3.15;1.63;;;;;;;;;;5099458;28;20028;-80
2021/05/08 12:36:32;;;;;;;8.70;1.60;;;;;;;;;;5099732;28;20478;-79
2021/05/08 12:39:16;;;;;;;2.42;1.48;;;;;;;;;;5097878;28;20061;-79
2021/05/08 12:41:53;;;;;;;5.68;1.55;;;;;;;;;;5098047;28;20409;-79
2021/05/08 12:44:37;;;;;;;3.75;1.83;;;;;;;;;;5099373;28;20611;-82
2021/05/08 12:47:23;;;;;;;2.83;1.70;;;;;;;;;;5097552;28;20035;-79
2021/05/08 12:50:09;;;;;;;5.10;1.85;;;;;;;;;;5098215;28;20032;-80
2021/05/08 12:52:37;;;;;;;4.47;2.25;;;;;;;;;;5095646;28;20031;-83
2021/05/08 12:55:03;;;;;;;2.00;1.25;;;;;;;;;;5097939;28;20036;-79
2021/05/08 12:57:32;;;;;;;3.60;1.70;;;;;;;;;;5097455;28;20032;-81
2021/05/08 13:00:06;;;;;;;2.92;1.65;;;;;;;;;;5090596;28;20068;-80
2021/05/08 13:02:32;;;;;;;1.40;1.20;;;;;;;;;;5077511;28;20427;-80
2021/05/08 13:05:15;;;;;;;5.60;2.30;;;;;;;;;;5077690;28;20047;-79
2021/05/08 13:07:59;;;;;;;4.00;2.00;;;;;;;;;;5078377;28;20035;-80
2021/05/08 13:10:40;;;;;;;13.98;1.85;;;;;;;;;;5097657;28;20394;-81
2021/05/08 13:13:16;;;;;;;4.90;1.88;;;;;;;;;;5097590;28;20055;-80
2021/05/08 13:15:41;;;;;;;4.65;2.20;;;;;;;;;;5096966;28;20149;-80
2021/05/08 13:18:09;;;;;;;2.30;1.65;;;;;;;;;;5095680;28;20049;-79
2021/05/08 13:20:36;;;;;;;5.47;2.25;;;;;;;;;;5095915;28;20051;-81
2021/05/08 13:23:03;;;;;;;4.35;2.30;;;;;;;;;;5095708;28;20085;-80
2021/05/08 13:25:29;;;;;;;4.07;2.20;;;;;;;;;;5097193;28;20042;-79
2021/05/08 13:27:55;;;;;;;4.53;2.85;;;;;;;;;;5097075;28;20601;-79
2021/05/08 13:30:23;;;;;;;4.93;2.60;;;;;;;;;;5098025;28;20074;-80
2021/05/08 13:32:50;;;;;;;5.63;2.72;;;;;;;;;;5096420;28;20028;-80
2021/05/08 13:35:17;;;;;;;4.07;2.65;;;;;;;;;;5096668;28;20042;-79
2021/05/08 13:37:44;;;;;;;6.55;2.60;;;;;;;;;;5098748;28;20111;-79
2021/05/08 13:40:09;;;;;;;6.30;2.83;;;;;;;;;;5097600;28;20047;-79
2021/05/08 13:42:35;;;;;;;4.72;2.40;;;;;;;;;;5102105;28;20036;-80
2021/05/08 13:45:01;;;;;;;4.43;2.60;;;;;;;;;;5105749;28;20039;-80
2021/05/08 13:47:26;;;;;;;6.03;2.10;;;;;;;;;;5106096;28;20028;-80
2021/05/08 13:49:54;;;;;;;1.90;1.45;;;;;;;;;;5101794;28;20097;-79
2021/05/08 13:52:21;;;;;;;4.53;2.10;;;;;;;;;;5101923;28;20028;-79
2021/05/08 13:54:47;;;;;;;5.57;2.20;;;;;;;;;;5102125;28;20055;-79
2021/05/08 13:57:13;;;;;;;6.57;2.42;;;;;;;;;;5100997;28;20035;-79
2021/05/08 13:59:38;;;;;;;5.07;2.63;;;;;;;;;;5100622;28;20032;-84
2021/05/08 14:02:04;;;;;;;5.25;2.42;;;;;;;;;;5098054;28;20546;-83
2021/05/08 14:04:30;;;;;;;6.28;2.92;;;;;;;;;;5099052;28;20122;-80
2021/05/08 14:06:55;;;;;;;4.40;2.17;;;;;;;;;;5099104;28;20052;-81
2021/05/08 14:09:21;;;;;;;7.07;3.08;;;;;;;;;;5091093;28;20039;-80
2021/05/08 14:11:46;;;;;;;4.03;2.00;;;;;;;;;;5077958;28;20418;-80
2021/05/08 14:14:11;;;;;;;4.97;2.55;;;;;;;;;;5076665;28;20043;-80
2021/05/08 14:16:37;;;;;;;3.50;2.22;;;;;;;;;;5078554;28;20032;-80
2021/05/08 14:19:02;;;;;;;3.95;2.17;;;;;;;;;;5078540;28;20085;-80
2021/05/08 14:21:28;;;;;;;4.25;2.22;;;;;;;;;;5081132;28;20064;-80
2021/05/08 14:23:53;;;;;;;3.67;2.15;;;;;;;;;;5079874;28;20047;-79
2021/05/08 14:26:19;;;;;;;5.75;2.47;;;;;;;;;;5078656;28;20029;-79
2021/05/08 14:28:44;;;;;;;2.92;2.13;;;;;;;;;;5078340;28;20031;-79
2021/05/08 14:31:10;;;;;;;4.68;2.13;;;;;;;;;;5077065;28;20501;-79
2021/05/08 14:33:35;;;;;;;3.97;1.90;;;;;;;;;;5079454;28;20119;-80
2021/05/08 14:36:00;;;;;;;4.35;1.95;;;;;;;;;;5076847;28;20044;-80
2021/05/08 14:38:27;;;;;;;3.45;1.90;;;;;;;;;;5076022;28;20032;-79
2021/05/08 14:40:53;;;;;;;4.55;2.30;;;;;;;;;;5096225;28;20474;-79
2021/05/08 14:43:18;;;;;;;5.65;2.30;;;;;;;;;;5091384;28;20036;-80
2021/05/08 14:45:44;;;;;;;3.15;1.75;;;;;;;;;;5081302;28;20493;-79
2021/05/08 14:48:09;;;;;;;2.42;1.67;;;;;;;;;;5081332;28;20032;-79